sensor_id;sensor_type;location;lat;lon;timestamp;pressure;altitude;pressure_sealevel;temperature;humidity
35848;BME280;22332;51.954;20.118;2022-07-06T00:01:55;100363.75;;;15.94;87.85
35848;BME280;22332;51.954;20.118;2022-07-06T00:05:00;100363.69;;;15.93;87.90
35848;BME280;22332;51.954;20.118;2022-07-06T00:08:06;100359.14;;;15.90;87.96
35848;BME280;22332;51.954;20.118;2022-07-06T00:11:11;100359.73;;;15.91;87.99
35848;BME280;22332;51.954;20.118;2022-07-06T00:14:17;100359.55;;;15.93;88.27
35848;BME280;22332;51.954;20.118;2022-07-06T00:17:22;100356.70;;;15.91;87.98
35848;BME280;22332;51.954;20.118;2022-07-06T00:20:28;100361.25;;;15.94;87.90
35848;BME280;22332;51.954;20.118;2022-07-06T00:23:34;100359.02;;;15.99;87.88
35848;BME280;22332;51.954;20.118;2022-07-06T00:26:39;100358.97;;;15.99;87.90
35848;BME280;22332;51.954;20.118;2022-07-06T00:29:44;100360.10;;;15.97;88.02
35848;BME280;22332;51.954;20.118;2022-07-06T00:32:50;100363.45;;;15.97;87.91
35848;BME280;22332;51.954;20.118;2022-07-06T00:35:55;100362.19;;;15.95;88.13
35848;BME280;22332;51.954;20.118;2022-07-06T00:39:00;100360.89;;;15.94;88.14
35848;BME280;22332;51.954;20.118;2022-07-06T00:42:06;100359.71;;;15.99;88.05
35848;BME280;22332;51.954;20.118;2022-07-06T00:45:13;100353.69;;;16.03;87.84
35848;BME280;22332;51.954;20.118;2022-07-06T00:48:19;100347.64;;;16.10;87.83
35848;BME280;22332;51.954;20.118;2022-07-06T00:51:28;100340.48;;;16.17;87.70
35848;BME280;22332;51.954;20.118;2022-07-06T00:54:35;100337.96;;;16.24;87.71
35848;BME280;22332;51.954;20.118;2022-07-06T00:57:42;100331.69;;;16.39;87.73
35848;BME280;22332;51.954;20.118;2022-07-06T01:00:48;100328.64;;;16.48;87.39
35848;BME280;22332;51.954;20.118;2022-07-06T01:03:53;100322.48;;;16.48;87.19
35848;BME280;22332;51.954;20.118;2022-07-06T01:07:00;100318.25;;;16.52;87.38
35848;BME280;22332;51.954;20.118;2022-07-06T01:10:07;100312.52;;;16.61;87.42
35848;BME280;22332;51.954;20.118;2022-07-06T01:13:13;100308.15;;;16.70;87.30
35848;BME280;22332;51.954;20.118;2022-07-06T01:16:19;100304.10;;;16.72;87.05
35848;BME280;22332;51.954;20.118;2022-07-06T01:19:24;100303.30;;;16.74;86.92
35848;BME280;22332;51.954;20.118;2022-07-06T01:22:30;100308.05;;;16.78;86.85
35848;BME280;22332;51.954;20.118;2022-07-06T01:25:36;100303.27;;;16.80;86.72
35848;BME280;22332;51.954;20.118;2022-07-06T01:28:41;100297.46;;;16.79;86.63
35848;BME280;22332;51.954;20.118;2022-07-06T01:31:48;100298.45;;;16.74;86.51
35848;BME280;22332;51.954;20.118;2022-07-06T01:34:54;100299.88;;;16.63;86.52
35848;BME280;22332;51.954;20.118;2022-07-06T01:38:01;100302.39;;;16.58;86.69
35848;BME280;22332;51.954;20.118;2022-07-06T01:41:07;100296.36;;;16.56;86.61
35848;BME280;22332;51.954;20.118;2022-07-06T01:44:14;100289.76;;;16.59;86.69
35848;BME280;22332;51.954;20.118;2022-07-06T01:47:19;100294.38;;;16.56;86.52
35848;BME280;22332;51.954;20.118;2022-07-06T01:50:27;100291.09;;;16.51;86.48
35848;BME280;22332;51.954;20.118;2022-07-06T01:53:34;100291.34;;;16.47;86.48
35848;BME280;22332;51.954;20.118;2022-07-06T01:56:39;100290.98;;;16.46;86.48
35848;BME280;22332;51.954;20.118;2022-07-06T01:59:45;100290.27;;;16.44;86.25
35848;BME280;22332;51.954;20.118;2022-07-06T02:02:51;100287.07;;;16.43;86.36
35848;BME280;22332;51.954;20.118;2022-07-06T02:05:56;100289.84;;;16.35;86.00
35848;BME280;22332;51.954;20.118;2022-07-06T02:09:02;100289.98;;;16.32;86.37
35848;BME280;22332;51.954;20.118;2022-07-06T02:12:08;100293.88;;;16.30;86.06
35848;BME280;22332;51.954;20.118;2022-07-06T02:15:14;100294.42;;;16.24;86.11
35848;BME280;22332;51.954;20.118;2022-07-06T02:18:20;100291.71;;;16.21;86.14
35848;BME280;22332;51.954;20.118;2022-07-06T02:21:25;100287.63;;;16.22;86.22
35848;BME280;22332;51.954;20.118;2022-07-06T02:24:30;100286.05;;;16.23;85.95
35848;BME280;22332;51.954;20.118;2022-07-06T02:27:36;100293.91;;;16.18;85.81
35848;BME280;22332;51.954;20.118;2022-07-06T02:30:43;100298.98;;;16.10;85.93
35848;BME280;22332;51.954;20.118;2022-07-06T02:33:48;100306.02;;;16.04;86.17
35848;BME280;22332;51.954;20.118;2022-07-06T02:36:54;100300.27;;;16.07;86.28
35848;BME280;22332;51.954;20.118;2022-07-06T02:40:00;100297.55;;;16.12;86.10
35848;BME280;22332;51.954;20.118;2022-07-06T02:43:07;100293.63;;;16.13;85.94
35848;BME280;22332;51.954;20.118;2022-07-06T02:46:14;100285.11;;;16.14;85.81
35848;BME280;22332;51.954;20.118;2022-07-06T02:49:19;100283.17;;;16.10;85.77
35848;BME280;22332;51.954;20.118;2022-07-06T02:52:25;100288.67;;;16.06;86.00
35848;BME280;22332;51.954;20.118;2022-07-06T02:55:34;100293.61;;;15.97;85.93
35848;BME280;22332;51.954;20.118;2022-07-06T02:58:40;100289.76;;;15.97;86.40
35848;BME280;22332;51.954;20.118;2022-07-06T03:01:46;100293.06;;;15.97;85.96
35848;BME280;22332;51.954;20.118;2022-07-06T03:04:52;100294.45;;;15.95;86.39
35848;BME280;22332;51.954;20.118;2022-07-06T03:07:57;100292.39;;;15.95;86.26
35848;BME280;22332;51.954;20.118;2022-07-06T03:11:04;100299.27;;;15.96;86.25
35848;BME280;22332;51.954;20.118;2022-07-06T03:14:09;100297.46;;;16.03;86.39
35848;BME280;22332;51.954;20.118;2022-07-06T03:17:17;100287.80;;;16.09;86.53
35848;BME280;22332;51.954;20.118;2022-07-06T03:20:23;100281.63;;;16.09;86.30
35848;BME280;22332;51.954;20.118;2022-07-06T03:23:30;100274.86;;;16.03;86.78
35848;BME280;22332;51.954;20.118;2022-07-06T03:26:36;100273.76;;;15.99;86.76
35848;BME280;22332;51.954;20.118;2022-07-06T03:29:42;100270.29;;;16.07;86.82
35848;BME280;22332;51.954;20.118;2022-07-06T03:32:48;100270.20;;;16.14;86.71
35848;BME280;22332;51.954;20.118;2022-07-06T03:35:53;100271.25;;;16.18;86.78
35848;BME280;22332;51.954;20.118;2022-07-06T03:38:59;100271.72;;;16.19;86.64
35848;BME280;22332;51.954;20.118;2022-07-06T03:42:06;100277.13;;;16.17;86.58
35848;BME280;22332;51.954;20.118;2022-07-06T03:45:12;100281.17;;;16.10;86.61
35848;BME280;22332;51.954;20.118;2022-07-06T03:48:18;100283.90;;;16.08;86.71
35848;BME280;22332;51.954;20.118;2022-07-06T03:51:24;100282.52;;;16.08;86.85
35848;BME280;22332;51.954;20.118;2022-07-06T03:54:31;100281.00;;;16.06;86.64
35848;BME280;22332;51.954;20.118;2022-07-06T03:57:36;100279.11;;;16.06;86.76
35848;BME280;22332;51.954;20.118;2022-07-06T04:00:44;100278.42;;;16.11;86.77
35848;BME280;22332;51.954;20.118;2022-07-06T04:03:51;100273.86;;;16.11;86.92
35848;BME280;22332;51.954;20.118;2022-07-06T04:06:57;100270.58;;;16.06;86.89
35848;BME280;22332;51.954;20.118;2022-07-06T04:10:04;100272.12;;;16.04;87.01
35848;BME280;22332;51.954;20.118;2022-07-06T04:13:09;100268.12;;;16.16;87.30
35848;BME280;22332;51.954;20.118;2022-07-06T04:16:15;100270.80;;;16.22;86.80
35848;BME280;22332;51.954;20.118;2022-07-06T04:19:20;100268.42;;;16.20;87.05
35848;BME280;22332;51.954;20.118;2022-07-06T04:22:27;100269.55;;;16.25;87.20
35848;BME280;22332;51.954;20.118;2022-07-06T04:25:33;100270.08;;;16.32;87.37
35848;BME280;22332;51.954;20.118;2022-07-06T04:28:40;100265.63;;;16.46;87.46
35848;BME280;22332;51.954;20.118;2022-07-06T04:31:45;100258.17;;;16.67;87.20
35848;BME280;22332;51.954;20.118;2022-07-06T04:34:51;100256.36;;;16.89;87.07
35848;BME280;22332;51.954;20.118;2022-07-06T04:37:57;100259.16;;;17.12;86.87
35848;BME280;22332;51.954;20.118;2022-07-06T04:41:03;100267.60;;;17.25;86.64
35848;BME280;22332;51.954;20.118;2022-07-06T04:44:09;100267.17;;;17.34;86.77
35848;BME280;22332;51.954;20.118;2022-07-06T04:47:15;100266.45;;;17.51;86.35
35848;BME280;22332;51.954;20.118;2022-07-06T04:50:21;100272.50;;;17.55;86.10
35848;BME280;22332;51.954;20.118;2022-07-06T04:53:27;100273.42;;;17.51;85.80
35848;BME280;22332;51.954;20.118;2022-07-06T04:56:33;100277.58;;;17.52;86.18
35848;BME280;22332;51.954;20.118;2022-07-06T04:59:39;100278.50;;;17.54;85.51
35848;BME280;22332;51.954;20.118;2022-07-06T05:02:45;100276.02;;;17.63;85.89
35848;BME280;22332;51.954;20.118;2022-07-06T05:05:51;100275.73;;;17.70;84.96
35848;BME280;22332;51.954;20.118;2022-07-06T05:08:56;100273.48;;;17.72;85.10
35848;BME280;22332;51.954;20.118;2022-07-06T05:12:04;100276.20;;;17.80;84.74
35848;BME280;22332;51.954;20.118;2022-07-06T05:15:12;100279.95;;;17.86;84.39
35848;BME280;22332;51.954;20.118;2022-07-06T05:18:17;100280.43;;;17.90;84.23
35848;BME280;22332;51.954;20.118;2022-07-06T05:21:23;100288.71;;;17.94;84.34
35848;BME280;22332;51.954;20.118;2022-07-06T05:24:28;100296.58;;;17.90;83.47
35848;BME280;22332;51.954;20.118;2022-07-06T05:27:34;100296.91;;;17.84;83.85
35848;BME280;22332;51.954;20.118;2022-07-06T05:30:40;100299.03;;;17.79;83.88
35848;BME280;22332;51.954;20.118;2022-07-06T05:33:46;100297.27;;;17.81;84.20
35848;BME280;22332;51.954;20.118;2022-07-06T05:36:52;100298.25;;;18.00;83.49
35848;BME280;22332;51.954;20.118;2022-07-06T05:39:57;100291.61;;;18.11;83.34
35848;BME280;22332;51.954;20.118;2022-07-06T05:43:03;100298.55;;;18.21;82.65
35848;BME280;22332;51.954;20.118;2022-07-06T05:46:09;100306.09;;;18.27;82.59
35848;BME280;22332;51.954;20.118;2022-07-06T05:49:15;100310.46;;;18.22;82.14
35848;BME280;22332;51.954;20.118;2022-07-06T05:52:38;100310.31;;;18.25;82.59
35848;BME280;22332;51.954;20.118;2022-07-06T05:55:45;100319.66;;;18.34;81.59
35848;BME280;22332;51.954;20.118;2022-07-06T05:58:51;100323.35;;;18.29;81.38
35848;BME280;22332;51.954;20.118;2022-07-06T06:01:57;100324.02;;;18.45;81.69
35848;BME280;22332;51.954;20.118;2022-07-06T06:05:03;100323.68;;;18.55;81.68
35848;BME280;22332;51.954;20.118;2022-07-06T06:08:08;100327.07;;;18.77;81.90
35848;BME280;22332;51.954;20.118;2022-07-06T06:11:14;100325.33;;;19.11;81.37
35848;BME280;22332;51.954;20.118;2022-07-06T06:14:19;100323.15;;;19.42;79.63
35848;BME280;22332;51.954;20.118;2022-07-06T06:17:25;100323.83;;;19.38;78.66
35848;BME280;22332;51.954;20.118;2022-07-06T06:20:31;100320.38;;;19.39;79.55
35848;BME280;22332;51.954;20.118;2022-07-06T06:23:36;100322.41;;;19.46;79.58
35848;BME280;22332;51.954;20.118;2022-07-06T06:26:42;100325.83;;;19.39;78.90
35848;BME280;22332;51.954;20.118;2022-07-06T06:29:47;100327.96;;;19.17;77.70
35848;BME280;22332;51.954;20.118;2022-07-06T06:32:53;100329.38;;;19.18;79.19
35848;BME280;22332;51.954;20.118;2022-07-06T06:36:09;100331.20;;;19.20;79.20
35848;BME280;22332;51.954;20.118;2022-07-06T06:39:14;100331.58;;;19.30;79.02
35848;BME280;22332;51.954;20.118;2022-07-06T06:42:19;100329.37;;;19.39;79.29
35848;BME280;22332;51.954;20.118;2022-07-06T06:45:26;100329.98;;;19.50;79.36
35848;BME280;22332;51.954;20.118;2022-07-06T06:48:31;100333.95;;;19.64;78.59
35848;BME280;22332;51.954;20.118;2022-07-06T06:51:37;100334.13;;;19.62;78.35
35848;BME280;22332;51.954;20.118;2022-07-06T06:54:43;100330.27;;;19.58;77.40
35848;BME280;22332;51.954;20.118;2022-07-06T06:57:49;100329.55;;;19.51;78.12
35848;BME280;22332;51.954;20.118;2022-07-06T07:00:55;100326.77;;;19.48;77.39
35848;BME280;22332;51.954;20.118;2022-07-06T07:04:00;100328.20;;;19.38;77.46
35848;BME280;22332;51.954;20.118;2022-07-06T07:07:05;100331.02;;;19.41;78.02
35848;BME280;22332;51.954;20.118;2022-07-06T07:10:11;100327.36;;;19.50;77.42
35848;BME280;22332;51.954;20.118;2022-07-06T07:13:17;100330.73;;;19.53;77.08
35848;BME280;22332;51.954;20.118;2022-07-06T07:16:22;100333.42;;;19.53;77.45
35848;BME280;22332;51.954;20.118;2022-07-06T07:19:28;100336.72;;;19.57;76.57
35848;BME280;22332;51.954;20.118;2022-07-06T07:22:34;100339.04;;;19.62;76.08
35848;BME280;22332;51.954;20.118;2022-07-06T07:25:39;100334.55;;;19.54;75.27
35848;BME280;22332;51.954;20.118;2022-07-06T07:28:45;100332.64;;;19.50;74.78
35848;BME280;22332;51.954;20.118;2022-07-06T07:31:50;100331.13;;;19.42;73.47
35848;BME280;22332;51.954;20.118;2022-07-06T07:34:56;100327.16;;;19.33;72.56
35848;BME280;22332;51.954;20.118;2022-07-06T07:38:01;100321.95;;;19.28;73.09
35848;BME280;22332;51.954;20.118;2022-07-06T07:41:07;100324.34;;;19.28;73.23
35848;BME280;22332;51.954;20.118;2022-07-06T07:44:15;100333.20;;;19.32;73.53
35848;BME280;22332;51.954;20.118;2022-07-06T07:47:21;100320.88;;;19.47;73.79
35848;BME280;22332;51.954;20.118;2022-07-06T07:50:26;100323.51;;;19.66;72.69
35848;BME280;22332;51.954;20.118;2022-07-06T07:53:33;100321.29;;;19.76;73.00
35848;BME280;22332;51.954;20.118;2022-07-06T07:56:38;100322.42;;;20.07;72.90
35848;BME280;22332;51.954;20.118;2022-07-06T07:59:45;100321.98;;;20.34;72.86
35848;BME280;22332;51.954;20.118;2022-07-06T08:02:50;100320.53;;;20.69;72.22
35848;BME280;22332;51.954;20.118;2022-07-06T08:05:55;100321.17;;;20.85;70.35
35848;BME280;22332;51.954;20.118;2022-07-06T08:09:01;100322.66;;;20.74;70.51
35848;BME280;22332;51.954;20.118;2022-07-06T08:12:10;100326.23;;;20.77;69.84
35848;BME280;22332;51.954;20.118;2022-07-06T08:15:16;100328.17;;;20.98;70.57
35848;BME280;22332;51.954;20.118;2022-07-06T08:18:21;100328.92;;;21.26;68.46
35848;BME280;22332;51.954;20.118;2022-07-06T08:21:27;100337.05;;;21.12;64.80
35848;BME280;22332;51.954;20.118;2022-07-06T08:24:32;100338.55;;;20.68;65.37
35848;BME280;22332;51.954;20.118;2022-07-06T08:27:37;100339.93;;;20.60;66.01
35848;BME280;22332;51.954;20.118;2022-07-06T08:30:43;100336.04;;;20.63;66.60
35848;BME280;22332;51.954;20.118;2022-07-06T08:33:48;100333.58;;;20.69;65.62
35848;BME280;22332;51.954;20.118;2022-07-06T08:36:57;100330.48;;;20.64;65.51
35848;BME280;22332;51.954;20.118;2022-07-06T08:40:03;100335.34;;;20.59;64.17
35848;BME280;22332;51.954;20.118;2022-07-06T08:43:09;100344.05;;;20.38;64.03
35848;BME280;22332;51.954;20.118;2022-07-06T08:46:14;100338.13;;;20.47;66.20
35848;BME280;22332;51.954;20.118;2022-07-06T08:49:21;100335.88;;;20.62;64.34
35848;BME280;22332;51.954;20.118;2022-07-06T08:52:27;100335.70;;;20.60;65.32
35848;BME280;22332;51.954;20.118;2022-07-06T08:55:34;100340.51;;;20.58;62.23
35848;BME280;22332;51.954;20.118;2022-07-06T08:58:40;100339.55;;;20.57;62.98
35848;BME280;22332;51.954;20.118;2022-07-06T09:01:47;100341.88;;;20.59;63.87
35848;BME280;22332;51.954;20.118;2022-07-06T09:04:55;100340.38;;;20.72;63.08
35848;BME280;22332;51.954;20.118;2022-07-06T09:08:03;100341.69;;;20.81;63.43
35848;BME280;22332;51.954;20.118;2022-07-06T09:11:09;100348.77;;;20.88;61.70
35848;BME280;22332;51.954;20.118;2022-07-06T09:14:14;100346.58;;;20.93;61.56
35848;BME280;22332;51.954;20.118;2022-07-06T09:17:20;100341.83;;;20.93;59.90
35848;BME280;22332;51.954;20.118;2022-07-06T09:20:26;100340.58;;;20.92;59.00
35848;BME280;22332;51.954;20.118;2022-07-06T09:23:32;100337.76;;;21.01;60.77
35848;BME280;22332;51.954;20.118;2022-07-06T09:26:38;100333.08;;;21.17;60.01
35848;BME280;22332;51.954;20.118;2022-07-06T09:29:46;100337.83;;;21.29;57.50
35848;BME280;22332;51.954;20.118;2022-07-06T09:32:52;100339.10;;;21.37;56.38
35848;BME280;22332;51.954;20.118;2022-07-06T09:35:58;100333.02;;;21.36;57.69
35848;BME280;22332;51.954;20.118;2022-07-06T09:39:17;100330.73;;;21.41;58.04
35848;BME280;22332;51.954;20.118;2022-07-06T09:42:26;100334.35;;;21.47;54.69
35848;BME280;22332;51.954;20.118;2022-07-06T09:45:34;100331.45;;;21.37;53.16
35848;BME280;22332;51.954;20.118;2022-07-06T09:48:41;100330.20;;;21.37;54.62
35848;BME280;22332;51.954;20.118;2022-07-06T09:51:47;100325.20;;;21.42;56.31
35848;BME280;22332;51.954;20.118;2022-07-06T09:54:53;100320.78;;;21.47;55.55
35848;BME280;22332;51.954;20.118;2022-07-06T09:57:58;100325.92;;;21.64;56.06
35848;BME280;22332;51.954;20.118;2022-07-06T10:01:04;100332.13;;;21.79;54.95
35848;BME280;22332;51.954;20.118;2022-07-06T10:04:11;100338.66;;;21.78;52.50
35848;BME280;22332;51.954;20.118;2022-07-06T10:07:18;100338.89;;;21.85;51.54
35848;BME280;22332;51.954;20.118;2022-07-06T10:10:26;100340.52;;;21.99;53.22
35848;BME280;22332;51.954;20.118;2022-07-06T10:13:33;100340.28;;;22.14;52.31
35848;BME280;22332;51.954;20.118;2022-07-06T10:16:39;100342.79;;;22.19;51.42
35848;BME280;22332;51.954;20.118;2022-07-06T10:19:45;100342.90;;;22.34;51.48
35848;BME280;22332;51.954;20.118;2022-07-06T10:22:52;100344.73;;;22.33;49.71
35848;BME280;22332;51.954;20.118;2022-07-06T10:25:58;100336.23;;;22.37;49.16
35848;BME280;22332;51.954;20.118;2022-07-06T10:29:05;100348.08;;;22.37;48.75
35848;BME280;22332;51.954;20.118;2022-07-06T10:32:11;100341.62;;;22.19;49.34
35848;BME280;22332;51.954;20.118;2022-07-06T10:35:17;100343.64;;;22.04;49.60
35848;BME280;22332;51.954;20.118;2022-07-06T10:38:32;100341.40;;;22.13;49.19
35848;BME280;22332;51.954;20.118;2022-07-06T10:41:37;100346.92;;;22.32;50.26
35848;BME280;22332;51.954;20.118;2022-07-06T10:44:46;100349.77;;;22.39;48.97
35848;BME280;22332;51.954;20.118;2022-07-06T10:48:17;100348.00;;;22.43;48.92
35848;BME280;22332;51.954;20.118;2022-07-06T10:51:26;100344.13;;;22.45;48.07
35848;BME280;22332;51.954;20.118;2022-07-06T10:54:40;100344.09;;;22.34;48.30
35848;BME280;22332;51.954;20.118;2022-07-06T10:57:54;100342.66;;;22.31;49.32
35848;BME280;22332;51.954;20.118;2022-07-06T11:00:59;100346.39;;;22.38;49.79
35848;BME280;22332;51.954;20.118;2022-07-06T11:04:09;100339.38;;;22.43;48.19
35848;BME280;22332;51.954;20.118;2022-07-06T11:07:15;100328.77;;;22.52;49.54
35848;BME280;22332;51.954;20.118;2022-07-06T11:10:23;100327.05;;;22.69;47.36
35848;BME280;22332;51.954;20.118;2022-07-06T11:13:29;100331.93;;;22.74;46.90
35848;BME280;22332;51.954;20.118;2022-07-06T11:16:37;100327.54;;;22.88;48.52
35848;BME280;22332;51.954;20.118;2022-07-06T11:19:52;100332.30;;;22.85;47.09
35848;BME280;22332;51.954;20.118;2022-07-06T11:23:00;100331.77;;;22.67;45.99
35848;BME280;22332;51.954;20.118;2022-07-06T11:26:05;100336.15;;;22.50;45.03
35848;BME280;22332;51.954;20.118;2022-07-06T11:29:12;100334.62;;;22.70;46.91
35848;BME280;22332;51.954;20.118;2022-07-06T11:32:24;100330.48;;;23.01;45.98
35848;BME280;22332;51.954;20.118;2022-07-06T11:35:31;100328.09;;;23.13;47.39
35848;BME280;22332;51.954;20.118;2022-07-06T11:38:36;100322.28;;;23.18;46.68
35848;BME280;22332;51.954;20.118;2022-07-06T11:41:41;100322.28;;;23.09;46.40
35848;BME280;22332;51.954;20.118;2022-07-06T11:44:47;100326.93;;;22.92;45.73
35848;BME280;22332;51.954;20.118;2022-07-06T11:48:10;100321.99;;;22.82;46.73
35848;BME280;22332;51.954;20.118;2022-07-06T11:51:16;100321.99;;;22.81;45.51
35848;BME280;22332;51.954;20.118;2022-07-06T11:54:23;100320.98;;;22.85;46.56
35848;BME280;22332;51.954;20.118;2022-07-06T11:57:32;100321.91;;;22.78;45.64
35848;BME280;22332;51.954;20.118;2022-07-06T12:00:37;100323.28;;;22.75;46.49
35848;BME280;22332;51.954;20.118;2022-07-06T12:03:43;100320.60;;;22.68;45.34
35848;BME280;22332;51.954;20.118;2022-07-06T12:06:49;100313.81;;;22.77;44.98
35848;BME280;22332;51.954;20.118;2022-07-06T12:09:54;100312.25;;;23.00;45.56
35848;BME280;22332;51.954;20.118;2022-07-06T12:13:05;100311.79;;;23.17;45.29
35848;BME280;22332;51.954;20.118;2022-07-06T12:16:14;100310.85;;;23.18;43.85
35848;BME280;22332;51.954;20.118;2022-07-06T12:19:22;100308.95;;;23.14;46.07
35848;BME280;22332;51.954;20.118;2022-07-06T12:22:28;100309.67;;;23.25;46.32
35848;BME280;22332;51.954;20.118;2022-07-06T12:25:35;100310.73;;;23.35;45.43
35848;BME280;22332;51.954;20.118;2022-07-06T12:28:41;100311.36;;;23.42;45.77
35848;BME280;22332;51.954;20.118;2022-07-06T12:31:51;100316.68;;;23.55;45.38
35848;BME280;22332;51.954;20.118;2022-07-06T12:35:05;100319.13;;;23.60;43.69
35848;BME280;22332;51.954;20.118;2022-07-06T12:38:11;100321.52;;;23.38;42.98
35848;BME280;22332;51.954;20.118;2022-07-06T12:41:32;100319.00;;;23.26;45.16
35848;BME280;22332;51.954;20.118;2022-07-06T12:44:45;100326.11;;;23.27;44.06
35848;BME280;22332;51.954;20.118;2022-07-06T12:48:00;100330.19;;;23.04;42.71
35848;BME280;22332;51.954;20.118;2022-07-06T12:51:05;100329.66;;;22.97;44.83
35848;BME280;22332;51.954;20.118;2022-07-06T12:54:15;100336.05;;;23.05;44.84
35848;BME280;22332;51.954;20.118;2022-07-06T12:57:22;100338.29;;;23.07;45.12
35848;BME280;22332;51.954;20.118;2022-07-06T13:00:30;100337.75;;;23.11;45.28
35848;BME280;22332;51.954;20.118;2022-07-06T13:03:48;100345.23;;;22.96;44.88
35848;BME280;22332;51.954;20.118;2022-07-06T13:06:58;100348.19;;;22.69;44.33
35848;BME280;22332;51.954;20.118;2022-07-06T13:10:06;100363.63;;;22.34;44.65
35848;BME280;22332;51.954;20.118;2022-07-06T13:13:12;100385.98;;;21.85;46.29
35848;BME280;22332;51.954;20.118;2022-07-06T13:16:18;100403.07;;;21.07;49.36
35848;BME280;22332;51.954;20.118;2022-07-06T13:19:23;100405.50;;;20.43;50.25
35848;BME280;22332;51.954;20.118;2022-07-06T13:22:29;100421.34;;;19.87;53.44
35848;BME280;22332;51.954;20.118;2022-07-06T13:25:34;100416.91;;;19.48;53.92
35848;BME280;22332;51.954;20.118;2022-07-06T13:28:39;100419.13;;;19.16;55.65
35848;BME280;22332;51.954;20.118;2022-07-06T13:31:45;100422.27;;;18.89;55.76
35848;BME280;22332;51.954;20.118;2022-07-06T13:34:50;100426.84;;;18.68;55.86
35848;BME280;22332;51.954;20.118;2022-07-06T13:37:55;100429.55;;;18.58;55.93
35848;BME280;22332;51.954;20.118;2022-07-06T13:41:01;100439.18;;;18.42;57.24
35848;BME280;22332;51.954;20.118;2022-07-06T13:44:06;100430.02;;;18.22;57.86
35848;BME280;22332;51.954;20.118;2022-07-06T13:47:13;100432.13;;;18.13;57.51
35848;BME280;22332;51.954;20.118;2022-07-06T13:50:19;100436.03;;;18.06;58.05
35848;BME280;22332;51.954;20.118;2022-07-06T13:53:24;100436.38;;;18.02;57.60
35848;BME280;22332;51.954;20.118;2022-07-06T13:56:29;100436.77;;;17.98;58.03
35848;BME280;22332;51.954;20.118;2022-07-06T13:59:35;100440.01;;;17.94;58.44
35848;BME280;22332;51.954;20.118;2022-07-06T14:02:41;100442.53;;;17.85;58.60
35848;BME280;22332;51.954;20.118;2022-07-06T14:05:46;100433.58;;;17.82;58.57
35848;BME280;22332;51.954;20.118;2022-07-06T14:08:52;100435.61;;;17.80;58.70
35848;BME280;22332;51.954;20.118;2022-07-06T14:11:57;100444.90;;;17.75;59.11
35848;BME280;22332;51.954;20.118;2022-07-06T14:15:03;100441.35;;;17.66;58.99
35848;BME280;22332;51.954;20.118;2022-07-06T14:18:08;100441.95;;;17.61;59.03
35848;BME280;22332;51.954;20.118;2022-07-06T14:21:13;100442.05;;;17.50;59.63
35848;BME280;22332;51.954;20.118;2022-07-06T14:24:19;100437.46;;;17.44;59.37
35848;BME280;22332;51.954;20.118;2022-07-06T14:27:24;100444.23;;;17.39;59.66
35848;BME280;22332;51.954;20.118;2022-07-06T14:30:29;100441.20;;;17.34;60.10
35848;BME280;22332;51.954;20.118;2022-07-06T14:33:35;100446.69;;;17.31;60.12
35848;BME280;22332;51.954;20.118;2022-07-06T14:36:40;100440.14;;;17.22;60.63
35848;BME280;22332;51.954;20.118;2022-07-06T14:39:45;100442.44;;;17.13;61.26
35848;BME280;22332;51.954;20.118;2022-07-06T14:42:52;100438.45;;;17.04;62.01
35848;BME280;22332;51.954;20.118;2022-07-06T14:45:58;100437.94;;;17.00;61.85
35848;BME280;22332;51.954;20.118;2022-07-06T14:49:03;100437.27;;;16.99;62.75
35848;BME280;22332;51.954;20.118;2022-07-06T14:52:08;100437.55;;;16.97;62.45
35848;BME280;22332;51.954;20.118;2022-07-06T14:55:14;100434.60;;;16.97;62.83
35848;BME280;22332;51.954;20.118;2022-07-06T14:58:20;100433.73;;;16.95;63.07
35848;BME280;22332;51.954;20.118;2022-07-06T15:01:26;100429.77;;;16.96;62.56
35848;BME280;22332;51.954;20.118;2022-07-06T15:04:32;100418.92;;;17.02;62.33
35848;BME280;22332;51.954;20.118;2022-07-06T15:07:37;100417.56;;;17.10;62.40
35848;BME280;22332;51.954;20.118;2022-07-06T15:10:43;100416.60;;;17.19;62.43
35848;BME280;22332;51.954;20.118;2022-07-06T15:13:48;100416.29;;;17.29;62.29
35848;BME280;22332;51.954;20.118;2022-07-06T15:16:54;100413.51;;;17.33;62.26
35848;BME280;22332;51.954;20.118;2022-07-06T15:20:01;100407.41;;;17.34;62.35
35848;BME280;22332;51.954;20.118;2022-07-06T15:23:06;100401.98;;;17.36;62.42
35848;BME280;22332;51.954;20.118;2022-07-06T15:26:11;100398.08;;;17.38;62.45
35848;BME280;22332;51.954;20.118;2022-07-06T15:29:17;100398.27;;;17.40;62.31
35848;BME280;22332;51.954;20.118;2022-07-06T15:32:22;100391.08;;;17.41;62.43
35848;BME280;22332;51.954;20.118;2022-07-06T15:35:28;100392.59;;;17.43;62.24
35848;BME280;22332;51.954;20.118;2022-07-06T15:38:33;100390.37;;;17.50;62.83
35848;BME280;22332;51.954;20.118;2022-07-06T15:41:40;100385.73;;;17.52;62.55
35848;BME280;22332;51.954;20.118;2022-07-06T15:44:46;100382.71;;;17.57;62.74
35848;BME280;22332;51.954;20.118;2022-07-06T15:47:53;100382.02;;;17.58;62.75
35848;BME280;22332;51.954;20.118;2022-07-06T15:50:59;100378.00;;;17.66;62.67
35848;BME280;22332;51.954;20.118;2022-07-06T15:54:04;100374.27;;;17.78;62.45
35848;BME280;22332;51.954;20.118;2022-07-06T15:57:10;100373.10;;;17.92;62.26
35848;BME280;22332;51.954;20.118;2022-07-06T16:00:16;100375.97;;;18.00;62.17
35848;BME280;22332;51.954;20.118;2022-07-06T16:03:21;100379.89;;;18.02;62.09